Time;durP1;ratioP1;P1;durP2;ratioP2;P2;SDS_P1;SDS_P2;PMS_P1;PMS_P2;Temp;Humidity;BMP_temperature;BMP_pressure;BME280_temperature;BME280_humidity;BME280_pressure;Samples;Min_cycle;Max_cycle;Signal;HPM_P1;HPM_P2
2022/06/21 00:00:49;;;;;;;6.35;3.15;;;10.40;99.90;;;;;;5002010;28;20120;-70
2022/06/21 00:03:22;;;;;;;6.68;2.53;;;10.40;99.90;;;;;;4986339;28;20576;-71
2022/06/21 00:05:50;;;;;;;7.18;2.70;;;10.40;99.90;;;;;;4988753;28;20530;-69
2022/06/21 00:08:31;;;;;;;6.85;2.90;;;10.30;99.90;;;;;;4986222;28;20058;-70
2022/06/21 00:10:58;;;;;;;9.25;3.78;;;10.30;99.90;;;;;;5034830;28;20061;-70
2022/06/21 00:13:35;;;;;;;8.65;3.42;;;10.20;99.90;;;;;;4994501;28;20037;-70
2022/06/21 00:16:07;;;;;;;9.15;4.68;;;10.20;99.90;;;;;;4999319;28;20465;-70
2022/06/21 00:18:35;;;;;;;6.55;3.42;;;10.20;99.90;;;;;;5000065;28;20129;-70
2022/06/21 00:21:01;;;;;;;6.63;4.35;;;10.20;99.90;;;;;;4986830;28;20684;-70
2022/06/21 00:23:32;;;;;;;12.20;6.43;;;10.20;99.90;;;;;;4967951;28;20053;-70
2022/06/21 00:25:58;;;;;;;11.38;6.03;;;10.20;99.90;;;;;;5004848;28;20115;-70
2022/06/21 00:28:25;;;;;;;12.48;6.47;;;10.10;99.90;;;;;;5010519;28;20115;-70
2022/06/21 00:30:54;;;;;;;13.30;6.97;;;10.10;99.90;;;;;;4996596;28;20050;-70
2022/06/21 00:33:22;;;;;;;12.45;6.15;;;10.10;99.90;;;;;;4980033;28;20046;-70
2022/06/21 00:35:50;;;;;;;11.13;5.20;;;10.10;99.90;;;;;;4970207;28;20132;-70
2022/06/21 00:38:30;;;;;;;7.13;4.60;;;10.00;99.90;;;;;;4997160;28;20045;-70
2022/06/21 00:40:58;;;;;;;12.40;6.55;;;10.00;99.90;;;;;;4979328;28;20050;-70
2022/06/21 00:43:32;;;;;;;29.20;9.82;;;9.90;99.90;;;;;;5012950;28;20465;-70
2022/06/21 00:45:59;;;;;;;16.88;10.52;;;9.80;99.90;;;;;;4981710;28;20048;-72
2022/06/21 00:48:28;;;;;;;9.30;4.50;;;9.80;99.90;;;;;;4984036;28;20041;-69
2022/06/21 00:51:00;;;;;;;6.85;4.50;;;9.80;99.90;;;;;;5001569;28;20042;-70
2022/06/21 00:53:50;;;;;;;5.18;3.45;;;9.80;99.90;;;;;;5010595;28;20103;-70
2022/06/21 00:56:22;;;;;;;6.78;3.90;;;9.80;99.90;;;;;;5022777;28;20392;-70
2022/06/21 00:58:48;;;;;;;9.25;5.55;;;9.80;99.90;;;;;;4990447;28;20543;-70
2022/06/21 01:01:29;;;;;;;12.68;6.47;;;9.80;99.90;;;;;;4987160;28;20524;-70
2022/06/21 01:04:16;;;;;;;9.88;6.22;;;9.70;99.90;;;;;;4998726;28;20684;-70
2022/06/21 01:06:46;;;;;;;14.15;8.48;;;9.70;99.90;;;;;;4998113;28;20037;-70
2022/06/21 01:09:37;;;;;;;11.23;7.40;;;9.60;99.90;;;;;;4998858;28;20077;-69
2022/06/21 01:12:11;;;;;;;14.43;6.97;;;9.50;99.90;;;;;;5017650;28;20053;-70
2022/06/21 01:14:41;;;;;;;6.38;4.20;;;9.50;99.90;;;;;;4994970;28;20084;-70
2022/06/21 01:17:10;;;;;;;7.38;4.47;;;9.50;99.90;;;;;;4981571;28;20038;-70
2022/06/21 01:19:41;;;;;;;5.75;4.30;;;9.40;99.90;;;;;;4987187;28;20050;-70
2022/06/21 01:22:15;;;;;;;6.28;3.55;;;9.50;99.90;;;;;;5030924;28;20041;-75
2022/06/21 01:25:19;;;;;;;4.32;3.20;;;9.50;99.90;;;;;;5003320;28;20481;-75
2022/06/21 01:27:45;;;;;;;4.85;2.47;;;9.50;99.90;;;;;;4992918;28;20093;-70
2022/06/21 01:30:11;;;;;;;5.50;4.00;;;9.40;99.90;;;;;;4984037;28;20054;-70
2022/06/21 01:32:37;;;;;;;7.82;4.13;;;9.40;99.90;;;;;;4980973;28;20085;-70
2022/06/21 01:35:17;;;;;;;5.60;3.10;;;9.30;99.90;;;;;;4979826;28;20073;-70
2022/06/21 01:37:47;;;;;;;7.82;6.10;;;9.40;99.90;;;;;;4997365;28;20046;-71
2022/06/21 01:40:20;;;;;;;5.82;3.50;;;9.30;99.90;;;;;;4999932;28;20046;-71
2022/06/21 01:42:49;;;;;;;4.72;3.20;;;9.30;99.90;;;;;;4998365;28;20045;-71
2022/06/21 01:45:21;;;;;;;9.68;6.32;;;9.30;99.90;;;;;;4996052;28;20046;-71
2022/06/21 01:48:05;;;;;;;12.80;7.05;;;9.20;99.90;;;;;;4982921;28;20132;-71
2022/06/21 01:50:33;;;;;;;10.20;7.57;;;9.20;99.90;;;;;;4984673;28;20049;-71
2022/06/21 01:53:00;;;;;;;8.88;7.22;;;9.20;99.90;;;;;;4986831;28;20054;-70
2022/06/21 01:55:39;;;;;;;10.90;6.43;;;9.00;99.90;;;;;;4966393;28;20034;-70
2022/06/21 01:58:08;;;;;;;14.27;6.55;;;9.00;99.90;;;;;;5001269;28;20124;-70
2022/06/21 02:00:38;;;;;;;12.02;4.45;;;9.00;99.90;;;;;;4975713;28;20061;-70
2022/06/21 02:03:16;;;;;;;5.85;3.00;;;9.00;99.90;;;;;;4991726;28;20122;-70
2022/06/21 02:05:50;;;;;;;4.72;3.22;;;9.00;99.90;;;;;;4997333;28;20054;-71
2022/06/21 02:08:20;;;;;;;7.32;5.38;;;8.90;99.90;;;;;;4978043;28;20088;-71
2022/06/21 02:11:00;;;;;;;5.35;4.60;;;8.90;99.90;;;;;;4999093;28;20054;-71
2022/06/21 02:13:43;;;;;;;6.63;4.00;;;8.90;99.90;;;;;;4994690;28;20046;-70
2022/06/21 02:16:15;;;;;;;8.80;5.63;;;8.90;99.90;;;;;;4999930;28;20076;-71
2022/06/21 02:18:49;;;;;;;4.35;3.92;;;8.80;99.90;;;;;;4995845;28;20077;-70
2022/06/21 02:21:23;;;;;;;4.65;3.30;;;8.80;99.90;;;;;;4999957;28;20060;-71
2022/06/21 02:23:52;;;;;;;4.25;2.97;;;8.80;99.90;;;;;;4982360;28;20046;-75
2022/06/21 02:26:20;;;;;;;4.95;3.50;;;8.80;99.90;;;;;;5004551;28;20091;-76
2022/06/21 02:28:46;;;;;;;4.50;3.28;;;8.80;99.90;;;;;;5003141;28;20108;-75
2022/06/21 02:31:12;;;;;;;6.53;3.40;;;8.80;99.90;;;;;;4972891;28;20061;-76
2022/06/21 02:33:40;;;;;;;5.43;3.75;;;8.90;99.90;;;;;;5010918;28;20103;-70
2022/06/21 02:36:24;;;;;;;5.00;3.35;;;8.90;99.90;;;;;;5000961;28;20519;-70
2022/06/21 02:38:56;;;;;;;6.38;3.60;;;8.90;99.90;;;;;;4990351;28;20042;-70
2022/06/21 02:41:22;;;;;;;7.10;3.80;;;8.90;99.90;;;;;;5017311;28;20049;-70
2022/06/21 02:44:00;;;;;;;6.65;4.03;;;8.90;99.90;;;;;;5023580;28;20574;-70
2022/06/21 02:46:30;;;;;;;7.07;3.45;;;8.90;99.90;;;;;;5021447;28;20112;-70
2022/06/21 02:48:59;;;;;;;;;;;8.90;99.90;;;;;;4987070;28;20048;-70
2022/06/21 02:51:31;;;;;;;5.63;3.83;;;8.80;99.90;;;;;;4979881;28;19929;-70
2022/06/21 02:54:18;;;;;;;5.95;4.22;;;8.80;99.90;;;;;;5001776;28;20038;-70
2022/06/21 02:57:00;;;;;;;6.65;4.03;;;8.90;99.90;;;;;;5030980;28;20056;-70
2022/06/21 02:59:27;;;;;;;5.90;3.72;;;8.90;99.90;;;;;;4980374;28;20081;-70
2022/06/21 03:01:58;;;;;;;5.95;4.03;;;8.90;99.90;;;;;;4984628;28;20712;-70
2022/06/21 03:04:28;;;;;;;;;;;8.90;99.90;;;;;;5030172;28;21417;-70
2022/06/21 03:06:54;;;;;;;8.73;6.30;;;8.80;99.90;;;;;;5016168;28;19972;-70
2022/06/21 03:09:23;;;;;;;9.77;7.57;;;8.80;99.90;;;;;;5014334;28;20137;-69
2022/06/21 03:11:53;;;;;;;10.40;7.25;;;8.70;99.90;;;;;;4985286;28;20042;-69
2022/06/21 03:14:24;;;;;;;13.13;8.90;;;8.70;99.90;;;;;;4984159;28;20401;-69
2022/06/21 03:16:52;;;;;;;7.90;5.50;;;8.50;99.90;;;;;;5035290;28;20049;-69
2022/06/21 03:19:44;;;;;;;7.65;6.72;;;8.50;99.90;;;;;;5001333;28;20439;-70
2022/06/21 03:22:17;;;;;;;9.73;6.38;;;8.50;99.90;;;;;;4984491;28;20054;-70
2022/06/21 03:24:44;;;;;;;5.20;4.47;;;8.40;99.90;;;;;;5011268;28;20456;-70
2022/06/21 03:27:35;;;;;;;11.32;8.40;;;8.40;99.90;;;;;;5012506;28;20134;-70
2022/06/21 03:30:02;;;;;;;12.82;9.60;;;8.40;99.90;;;;;;5032434;28;20570;-70
2022/06/21 03:32:33;;;;;;;8.93;6.68;;;8.40;99.90;;;;;;4997874;28;20054;-70
2022/06/21 03:35:01;;;;;;;6.78;4.20;;;8.30;99.90;;;;;;5001435;28;20552;-69
2022/06/21 03:37:27;;;;;;;6.05;4.93;;;8.30;99.90;;;;;;4972533;28;20137;-69
2022/06/21 03:42:46;;;;;;;5.75;4.65;;;8.40;99.90;;;;;;5031122;28;20391;-69
2022/06/21 03:45:24;;;;;;;6.22;4.45;;;8.40;99.90;;;;;;4986487;28;20042;-70
2022/06/21 03:48:15;;;;;;;6.82;5.43;;;8.50;99.90;;;;;;5037814;28;20045;-70
2022/06/21 03:50:53;;;;;;;5.43;4.18;;;8.50;99.90;;;;;;4995155;28;20129;-70
2022/06/21 03:53:42;;;;;;;7.70;5.38;;;8.50;99.90;;;;;;5006241;28;20049;-70
2022/06/21 03:56:14;;;;;;;7.47;6.68;;;8.50;99.90;;;;;;4981674;28;20043;-70
2022/06/21 03:58:43;;;;;;;5.45;4.95;;;8.50;99.90;;;;;;4986927;28;20057;-70
2022/06/21 04:01:24;;;;;;;5.88;5.03;;;8.50;99.90;;;;;;4984085;28;20442;-69
2022/06/21 04:04:01;;;;;;;7.10;5.05;;;8.40;99.90;;;;;;4979895;28;20046;-69
2022/06/21 04:06:48;;;;;;;6.03;5.25;;;8.50;99.90;;;;;;5002888;28;20053;-69
2022/06/21 04:09:34;;;;;;;6.15;4.82;;;8.50;99.90;;;;;;5000539;28;20072;-69
2022/06/21 04:12:25;;;;;;;7.53;4.43;;;8.60;99.90;;;;;;5001089;28;20033;-69
2022/06/21 04:15:02;;;;;;;7.07;5.40;;;8.60;99.90;;;;;;5033134;28;20081;-69
2022/06/21 04:17:46;;;;;;;6.68;5.18;;;8.60;99.90;;;;;;5042887;28;20057;-69
2022/06/21 04:20:45;;;;;;;5.85;4.75;;;8.70;99.90;;;;;;4999636;28;20048;-69
2022/06/21 04:23:27;;;;;;;7.07;5.18;;;8.80;99.90;;;;;;4973727;28;20136;-69
2022/06/21 04:26:01;;;;;;;8.43;5.88;;;8.80;99.90;;;;;;5000060;28;20665;-70
2022/06/21 04:28:38;;;;;;;6.45;5.25;;;8.80;99.90;;;;;;4996468;28;20053;-68
2022/06/21 04:31:14;;;;;;;8.40;5.38;;;8.90;99.90;;;;;;4986202;28;20061;-69
2022/06/21 04:33:53;;;;;;;6.28;4.97;;;8.90;99.90;;;;;;4998954;28;20076;-69
2022/06/21 04:36:52;;;;;;;7.70;6.87;;;9.00;99.90;;;;;;5000430;28;20528;-69
2022/06/21 04:39:25;;;;;;;10.50;5.63;;;9.00;99.90;;;;;;5019043;28;20099;-70
2022/06/21 04:42:00;;;;;;;6.90;4.97;;;9.00;99.90;;;;;;4983138;28;20054;-70
2022/06/21 04:44:45;;;;;;;6.88;5.75;;;9.00;99.90;;;;;;4980671;28;20042;-70
2022/06/21 04:47:31;;;;;;;6.57;5.45;;;9.10;99.90;;;;;;4998932;28;20833;-70
2022/06/21 04:50:13;;;;;;;9.10;6.47;;;9.10;99.90;;;;;;5030515;28;20045;-70
2022/06/21 04:52:52;;;;;;;7.35;5.57;;;9.10;99.90;;;;;;5020216;28;20046;-69
2022/06/21 04:55:23;;;;;;;8.13;6.25;;;9.10;99.90;;;;;;4982615;28;20050;-69
2022/06/21 04:57:49;;;;;;;7.00;5.47;;;9.20;99.90;;;;;;4998469;28;20053;-69
2022/06/21 05:00:20;;;;;;;7.57;5.70;;;9.20;99.90;;;;;;4963700;28;20038;-72
2022/06/21 05:02:56;;;;;;;7.30;5.43;;;9.30;99.90;;;;;;4993401;28;20054;-69
2022/06/21 05:05:34;;;;;;;6.75;5.57;;;9.40;99.90;;;;;;4996355;28;20050;-69
2022/06/21 05:08:09;;;;;;;6.88;5.60;;;9.50;99.90;;;;;;4997995;28;20080;-70
2022/06/21 05:10:46;;;;;;;9.45;7.50;;;9.60;99.90;;;;;;5001089;28;20049;-69
2022/06/21 05:13:29;;;;;;;10.23;8.98;;;9.70;99.90;;;;;;5001671;28;20053;-69
2022/06/21 05:15:59;;;;;;;9.48;8.43;;;9.80;99.90;;;;;;4999190;28;20520;-69
2022/06/21 05:18:35;;;;;;;10.68;9.13;;;10.00;99.90;;;;;;4999651;28;20563;-70
2022/06/21 05:21:08;;;;;;;11.50;8.68;;;10.10;99.90;;;;;;4999089;28;20396;-70
2022/06/21 05:23:37;;;;;;;10.38;9.30;;;10.30;99.90;;;;;;4999936;28;20053;-70
2022/06/21 05:26:12;;;;;;;10.70;8.70;;;10.40;99.90;;;;;;4996038;28;20069;-70
2022/06/21 05:28:44;;;;;;;13.73;8.90;;;10.60;99.90;;;;;;4989516;28;20076;-71
2022/06/21 05:31:23;;;;;;;11.05;9.95;;;10.80;99.90;;;;;;4987058;28;20053;-69
2022/06/21 05:33:51;;;;;;;14.10;9.38;;;10.90;99.90;;;;;;4995978;28;20508;-71
2022/06/21 05:36:26;;;;;;;10.13;9.13;;;11.00;99.90;;;;;;5031084;28;20389;-69
2022/06/21 05:39:12;;;;;;;8.77;7.78;;;11.20;99.90;;;;;;4997654;28;20149;-69
2022/06/21 05:41:44;;;;;;;10.20;9.20;;;11.30;99.90;;;;;;4991306;28;20060;-69
2022/06/21 05:44:42;;;;;;;12.88;9.70;;;11.40;99.90;;;;;;4980744;28;20042;-70
2022/06/21 05:47:27;;;;;;;11.20;9.52;;;11.50;99.90;;;;;;4992359;28;20057;-70
2022/06/21 05:49:54;;;;;;;13.52;10.30;;;11.70;99.90;;;;;;5012808;28;20046;-69
2022/06/21 05:52:28;;;;;;;11.88;10.50;;;11.70;99.90;;;;;;4989882;28;20052;-70
2022/06/21 05:55:15;;;;;;;12.73;9.27;;;11.80;99.90;;;;;;4987645;28;20139;-70
2022/06/21 05:58:14;;;;;;;12.30;9.32;;;11.90;99.90;;;;;;5003128;28;20103;-70
2022/06/21 06:01:09;;;;;;;12.48;9.75;;;12.10;99.90;;;;;;4996218;28;20062;-70
2022/06/21 06:03:55;;;;;;;12.90;8.45;;;12.20;99.90;;;;;;4994711;28;20072;-70
2022/06/21 06:06:21;;;;;;;11.40;9.02;;;12.30;99.90;;;;;;5027197;28;20049;-70
2022/06/21 06:08:53;;;;;;;10.38;8.30;;;12.40;99.90;;;;;;4975066;28;20052;-70
2022/06/21 06:11:26;;;;;;;9.75;8.48;;;12.50;99.90;;;;;;5012197;28;20054;-69
2022/06/21 06:13:53;;;;;;;10.57;8.70;;;12.50;99.90;;;;;;5016805;28;20038;-70
2022/06/21 06:16:36;;;;;;;10.35;9.35;;;12.70;99.90;;;;;;4993675;28;20037;-70
2022/06/21 06:19:24;;;;;;;10.45;8.40;;;12.80;99.90;;;;;;5031891;28;20061;-71
2022/06/21 06:22:06;;;;;;;8.80;7.80;;;12.80;99.90;;;;;;4979387;28;20038;-71
2022/06/21 06:24:40;;;;;;;10.10;7.85;;;12.90;99.90;;;;;;4980966;28;20571;-71
2022/06/21 06:27:31;;;;;;;9.85;6.97;;;13.00;99.90;;;;;;4998987;28;20060;-71
2022/06/21 06:30:02;;;;;;;8.90;7.20;;;13.20;99.90;;;;;;4995229;28;20056;-71
2022/06/21 06:32:44;;;;;;;9.25;5.25;;;13.40;99.90;;;;;;4999801;28;20133;-71
2022/06/21 06:39:28;;;;;;;7.57;3.85;;;13.70;99.90;;;;;;5036956;23;20094;-71
2022/06/21 06:42:07;;;;;;;7.95;4.97;;;13.80;99.90;;;;;;4964848;28;21217;-71
2022/06/21 06:44:38;;;;;;;9.88;4.63;;;13.80;99.90;;;;;;4978276;28;20458;-70
2022/06/21 06:47:28;;;;;;;9.05;4.47;;;13.90;99.90;;;;;;4973439;28;20057;-71
2022/06/21 06:50:16;;;;;;;10.48;4.65;;;13.90;99.90;;;;;;4972649;28;20064;-71
2022/06/21 06:52:45;;;;;;;8.85;3.67;;;14.10;99.90;;;;;;4995135;28;20037;-70
2022/06/21 06:55:33;;;;;;;10.37;4.20;;;14.20;99.90;;;;;;4997508;28;20049;-71
2022/06/21 06:58:10;;;;;;;6.68;3.60;;;14.20;99.90;;;;;;4979343;28;20173;-71
2022/06/21 07:00:46;;;;;;;7.35;4.00;;;14.30;99.90;;;;;;4979042;28;20467;-71
2022/06/21 07:03:19;;;;;;;8.50;4.40;;;14.40;99.90;;;;;;4990911;28;20045;-71
2022/06/21 07:06:41;;;;;;;9.02;4.63;;;14.50;99.90;;;;;;4985454;28;20046;-71
2022/06/21 07:09:08;;;;;;;9.57;4.90;;;14.70;99.90;;;;;;4995201;28;20057;-71
2022/06/21 07:11:47;;;;;;;10.25;4.55;;;14.80;99.90;;;;;;4974394;28;20078;-71
2022/06/21 07:14:18;;;;;;;7.33;3.70;;;14.80;99.90;;;;;;4976250;28;20516;-72
2022/06/21 07:16:44;;;;;;;;;;;14.90;99.90;;;;;;4987053;28;20467;-71
2022/06/21 07:19:11;;;;;;;5.55;3.42;;;15.00;99.90;;;;;;4982759;28;19922;-71
2022/06/21 07:21:38;;;;;;;7.25;3.25;;;15.10;99.90;;;;;;4977668;28;20089;-71
2022/06/21 07:24:08;;;;;;;7.72;3.17;;;15.30;99.90;;;;;;4972023;28;20104;-72
2022/06/21 07:26:44;;;;;;;7.45;3.55;;;15.40;99.90;;;;;;4958589;28;20058;-71
2022/06/21 07:29:13;;;;;;;7.90;3.47;;;15.60;99.90;;;;;;4986065;28;20114;-71
2022/06/21 07:31:51;;;;;;;6.72;2.95;;;15.80;99.90;;;;;;4974670;28;20433;-71
2022/06/21 07:34:33;;;;;;;10.50;3.42;;;15.90;99.90;;;;;;4989594;28;20101;-71
2022/06/21 07:37:09;;;;;;;8.85;4.40;;;16.00;99.90;;;;;;4978955;28;20050;-70
2022/06/21 07:39:57;;;;;;;8.10;4.28;;;16.10;99.90;;;;;;5012115;28;20043;-71
2022/06/21 07:42:48;;;;;;;9.48;3.45;;;16.30;99.90;;;;;;4980757;28;20283;-71
2022/06/21 07:45:35;;;;;;;10.02;3.05;;;16.40;99.90;;;;;;5012630;28;20129;-71
2022/06/21 07:48:04;;;;;;;6.75;3.67;;;16.40;99.90;;;;;;4992637;28;20049;-71
2022/06/21 07:50:50;;;;;;;8.00;3.85;;;16.20;99.90;;;;;;4977067;28;20046;-71
2022/06/21 07:53:19;;;;;;;6.28;2.90;;;16.10;99.90;;;;;;4992985;28;20188;-71
2022/06/21 07:56:16;;;;;;;8.35;3.13;;;16.20;99.90;;;;;;4987881;28;20089;-71
2022/06/21 07:59:00;;;;;;;5.40;3.58;;;16.50;99.90;;;;;;4996420;28;20181;-72
2022/06/21 08:07:20;;;;;;;8.00;3.50;;;17.10;99.90;;;;;;4990943;28;20058;-71
2022/06/21 08:09:49;;;;;;;8.13;3.33;;;17.30;99.90;;;;;;4984119;28;20065;-72
2022/06/21 08:12:16;;;;;;;8.65;2.60;;;17.50;99.90;;;;;;4984834;28;20038;-72
2022/06/21 08:14:43;;;;;;;6.60;2.45;;;17.70;99.90;;;;;;4977502;28;20486;-72
2022/06/21 08:17:19;;;;;;;6.88;2.65;;;17.80;99.90;;;;;;4985601;28;20080;-71
2022/06/21 08:20:15;;;;;;;6.47;3.03;;;17.80;99.90;;;;;;4990686;28;20124;-72
2022/06/21 08:22:49;;;;;;;5.72;2.03;;;18.00;99.90;;;;;;4987896;28;20058;-71
2022/06/21 08:25:40;;;;;;;7.22;3.08;;;18.00;99.90;;;;;;4988360;28;20045;-71
2022/06/21 08:28:15;;;;;;;7.93;3.58;;;18.10;99.90;;;;;;4984737;28;20046;-70
2022/06/21 08:30:52;;;;;;;6.55;3.97;;;18.20;99.90;;;;;;4996173;28;20554;-71
2022/06/21 08:33:42;;;;;;;7.90;3.40;;;18.20;99.90;;;;;;5013943;28;20050;-71
2022/06/21 08:36:20;;;;;;;6.10;3.67;;;18.30;99.90;;;;;;4998024;28;20046;-71
2022/06/21 08:39:04;;;;;;;5.97;2.38;;;18.40;99.90;;;;;;4984556;28;20045;-71
2022/06/21 08:41:55;;;;;;;5.60;3.30;;;18.40;99.90;;;;;;4991587;28;20880;-71
2022/06/21 08:44:46;;;;;;;7.45;3.30;;;18.60;99.90;;;;;;4989700;28;20145;-71
2022/06/21 08:47:21;;;;;;;6.72;3.15;;;18.70;99.90;;;;;;4987270;28;20033;-71
2022/06/21 08:50:00;;;;;;;6.72;3.13;;;18.60;99.90;;;;;;4981285;28;20041;-71
2022/06/21 08:53:02;;;;;;;5.63;2.90;;;18.60;99.90;;;;;;4988097;28;20142;-71
2022/06/21 08:55:42;;;;;;;6.30;2.92;;;18.70;99.90;;;;;;4995329;28;20408;-71
2022/06/21 08:58:32;;;;;;;6.80;2.78;;;18.60;99.90;;;;;;4973016;28;20054;-72
2022/06/21 09:01:03;;;;;;;6.30;2.80;;;18.70;99.90;;;;;;4985776;28;20119;-71
2022/06/21 09:03:32;;;;;;;4.80;2.05;;;18.70;99.90;;;;;;4978457;28;20053;-72
2022/06/21 09:06:21;;;;;;;5.63;1.85;;;18.80;99.90;;;;;;4987130;28;20046;-72
2022/06/21 09:09:25;;;;;;;6.57;2.08;;;19.00;99.90;;;;;;4987144;28;20045;-72
2022/06/21 09:11:56;;;;;;;4.70;1.88;;;19.30;99.90;;;;;;4982622;28;20527;-71
2022/06/21 09:14:37;;;;;;;7.72;1.98;;;19.50;99.90;;;;;;4971748;28;20105;-72
2022/06/21 09:17:35;;;;;;;6.35;2.17;;;19.50;99.90;;;;;;4977845;28;20614;-72
2022/06/21 09:20:42;;;;;;;4.35;1.38;;;19.50;99.90;;;;;;4973209;28;20053;-72
2022/06/21 09:23:16;;;;;;;3.20;1.55;;;19.50;99.90;;;;;;4986362;28;20057;-71
2022/06/21 09:25:44;;;;;;;4.50;1.50;;;19.60;99.90;;;;;;4989402;28;20449;-72
2022/06/21 09:28:20;;;;;;;5.80;1.48;;;19.80;99.90;;;;;;4975646;28;20144;-72
2022/06/21 09:30:55;;;;;;;6.82;1.80;;;19.90;99.90;;;;;;4983980;28;20628;-72
2022/06/21 09:33:44;;;;;;;3.60;1.35;;;19.90;99.90;;;;;;4979577;28;20184;-72
2022/06/21 09:37:02;;;;;;;2.97;1.23;;;20.10;99.90;;;;;;4988877;28;20419;-72
2022/06/21 09:40:14;;;;;;;5.78;1.20;;;20.10;99.90;;;;;;4977981;28;20042;-72
2022/06/21 09:42:54;;;;;;;3.63;1.23;;;20.20;99.90;;;;;;4932755;28;20054;-72
2022/06/21 09:45:25;;;;;;;3.38;1.15;;;20.30;99.90;;;;;;4997505;28;20046;-71
2022/06/21 09:48:09;;;;;;;2.92;1.00;;;20.30;99.50;;;;;;4996292;28;20065;-71
2022/06/21 09:50:38;;;;;;;4.55;1.30;;;20.20;96.10;;;;;;4982557;28;20324;-71
2022/06/21 09:53:16;;;;;;;2.50;1.20;;;20.10;98.40;;;;;;4985830;28;20489;-72
2022/06/21 09:55:59;;;;;;;6.07;1.40;;;20.10;94.00;;;;;;4984788;28;20057;-72
2022/06/21 09:58:34;;;;;;;4.15;1.02;;;20.20;98.00;;;;;;4988598;28;20682;-72
2022/06/21 10:01:38;;;;;;;3.83;1.33;;;20.30;99.90;;;;;;4982118;28;20633;-72
2022/06/21 10:04:12;;;;;;;2.80;1.23;;;20.60;99.90;;;;;;4994858;28;20599;-73
2022/06/21 10:06:58;;;;;;;2.97;1.08;;;20.60;99.90;;;;;;4980711;28;20057;-72
2022/06/21 10:09:48;;;;;;;3.53;1.00;;;20.60;99.90;;;;;;4972949;28;20073;-72
2022/06/21 10:12:13;;;;;;;;;;;20.80;97.70;;;;;;4990614;28;20060;-72
2022/06/21 10:14:51;;;;;;;3.97;1.15;;;20.90;94.40;;;;;;4987120;28;19925;-72
2022/06/21 10:17:48;;;;;;;3.50;1.13;;;20.90;91.40;;;;;;4986903;28;20050;-72
2022/06/21 10:20:32;;;;;;;2.72;1.02;;;21.00;92.10;;;;;;4998252;28;20045;-72
2022/06/21 10:23:31;;;;;;;4.03;1.30;;;21.10;92.60;;;;;;4985073;28;20405;-71
2022/06/21 10:26:35;;;;;;;3.38;1.50;;;21.00;90.50;;;;;;4989369;28;20140;-72
2022/06/21 10:29:24;;;;;;;3.90;1.45;;;21.00;91.40;;;;;;4991631;28;20283;-71
2022/06/21 10:31:56;;;;;;;3.70;1.30;;;21.10;94.80;;;;;;4978222;28;20073;-71
2022/06/21 10:34:38;;;;;;;2.40;0.93;;;21.20;92.50;;;;;;4978773;28;20468;-71
2022/06/21 10:37:37;;;;;;;3.92;1.30;;;21.20;87.00;;;;;;4989697;28;20125;-71
2022/06/21 10:40:25;;;;;;;3.85;0.90;;;21.20;89.10;;;;;;4970146;28;20042;-71
2022/06/21 10:42:57;;;;;;;4.90;1.05;;;21.30;93.40;;;;;;4990806;28;20143;-71
2022/06/21 10:45:44;;;;;;;4.70;1.20;;;21.50;79.60;;;;;;4977193;28;20072;-72
2022/06/21 10:48:45;;;;;;;3.00;0.93;;;21.50;89.80;;;;;;4995325;28;20069;-72
2022/06/21 10:51:49;;;;;;;5.55;0.95;;;21.70;91.70;;;;;;4981800;28;20053;-72
2022/06/21 10:54:42;;;;;;;2.30;0.90;;;22.00;87.20;;;;;;4973570;28;20127;-71
2022/06/21 10:57:13;;;;;;;3.95;1.02;;;22.20;91.10;;;;;;4991715;28;20042;-71
2022/06/21 11:02:39;;;;;;;4.47;1.02;;;22.50;81.20;;;;;;5015016;28;20370;-72
2022/06/21 11:05:34;;;;;;;3.85;0.90;;;22.40;79.60;;;;;;4982912;28;20098;-72
2022/06/21 11:08:37;;;;;;;3.30;0.90;;;22.40;80.50;;;;;;4990041;28;20945;-72
2022/06/21 11:11:26;;;;;;;2.28;1.00;;;22.50;79.90;;;;;;4997087;28;20126;-71
2022/06/21 11:14:09;;;;;;;2.72;0.80;;;22.40;76.80;;;;;;4991464;28;20052;-71
2022/06/21 11:16:56;;;;;;;4.57;0.98;;;22.40;77.70;;;;;;4975689;28;20053;-73
2022/06/21 11:19:34;;;;;;;1.90;0.65;;;22.40;77.60;;;;;;4994908;28;20525;-73
2022/06/21 11:22:19;;;;;;;3.85;0.90;;;22.50;81.00;;;;;;4992384;28;20046;-73
2022/06/21 11:24:57;;;;;;;3.22;0.80;;;22.60;68.80;;;;;;4976732;28;20053;-72
2022/06/21 11:27:39;;;;;;;2.70;0.70;;;22.60;75.40;;;;;;4992206;28;20050;-72
2022/06/21 11:30:13;;;;;;;2.63;0.88;;;22.70;65.20;;;;;;4993008;28;20226;-71
2022/06/21 11:32:48;;;;;;;3.78;1.00;;;22.60;69.30;;;;;;4993452;28;20061;-72
2022/06/21 11:35:36;;;;;;;2.97;0.77;;;22.50;66.10;;;;;;4976173;28;20069;-71
2022/06/21 11:38:20;;;;;;;2.50;0.70;;;22.50;64.10;;;;;;4988418;28;20042;-72
2022/06/21 11:41:08;;;;;;;1.80;0.68;;;22.30;67.10;;;;;;4981517;28;20407;-72
2022/06/21 11:43:48;;;;;;;4.00;0.82;;;22.30;70.60;;;;;;4974406;28;20073;-71
2022/06/21 11:46:34;;;;;;;;;;;22.50;72.60;;;;;;4996618;28;20252;-72
2022/06/21 11:49:26;;;;;;;3.92;1.30;;;22.60;69.30;;;;;;4986969;28;20052;-71
2022/06/21 11:52:00;;;;;;;3.40;0.88;;;22.50;69.70;;;;;;4994256;28;20057;-72
2022/06/21 11:54:35;;;;;;;3.90;0.80;;;22.40;70.20;;;;;;4982837;28;20050;-72
2022/06/21 11:57:18;;;;;;;4.70;0.80;;;22.40;71.00;;;;;;4993406;28;20042;-72
2022/06/21 12:00:15;;;;;;;4.32;1.25;;;22.60;68.90;;;;;;4982515;28;20048;-71
2022/06/21 12:02:58;;;;;;;5.55;1.10;;;22.70;70.50;;;;;;5003980;28;20540;-72
2022/06/21 12:06:00;;;;;;;2.53;1.00;;;22.80;68.90;;;;;;4996789;28;20038;-72
2022/06/21 12:08:52;;;;;;;3.03;0.95;;;22.90;64.70;;;;;;4987251;28;20063;-71
2022/06/21 12:11:48;;;;;;;2.10;0.70;;;23.00;65.80;;;;;;4976920;28;20553;-72
2022/06/21 12:15:05;;;;;;;2.65;0.77;;;23.00;67.70;;;;;;4985128;28;20097;-71
2022/06/21 12:17:57;;;;;;;4.05;0.90;;;23.20;61.00;;;;;;4975911;28;20463;-72
2022/06/21 12:20:45;;;;;;;3.45;0.93;;;23.20;64.30;;;;;;4974389;28;20496;-72
2022/06/21 12:23:18;;;;;;;5.10;0.82;;;23.30;65.00;;;;;;4987975;28;20189;-71
2022/06/21 12:25:45;;;;;;;3.38;0.90;;;23.30;62.60;;;;;;4979408;28;20481;-72
2022/06/21 12:28:19;;;;;;;3.60;0.82;;;23.30;63.60;;;;;;4996067;28;20046;-72
2022/06/21 12:30:46;;;;;;;3.92;0.80;;;23.40;63.60;;;;;;4991522;28;20053;-72
2022/06/21 12:33:15;;;;;;;5.82;1.20;;;23.40;62.50;;;;;;4994541;28;20191;-72
2022/06/21 12:36:22;;;;;;;5.45;1.08;;;23.40;66.10;;;;;;4972833;28;20129;-72
2022/06/21 12:39:05;;;;;;;2.50;1.00;;;23.30;72.20;;;;;;4952866;28;20061;-72
2022/06/21 12:42:03;;;;;;;2.97;1.15;;;23.20;73.30;;;;;;4987326;28;20536;-72
2022/06/21 12:44:51;;;;;;;3.38;1.05;;;23.20;81.70;;;;;;4983492;28;20089;-72
2022/06/21 12:47:51;;;;;;;3.78;1.00;;;23.10;83.80;;;;;;4983045;28;20106;-72
2022/06/21 12:50:41;;;;;;;2.25;0.63;;;23.00;79.10;;;;;;4970907;28;20049;-72
2022/06/21 12:53:17;;;;;;;4.15;0.93;;;22.80;82.70;;;;;;4991749;28;20042;-72
2022/06/21 12:56:03;;;;;;;4.97;1.25;;;22.60;77.60;;;;;;4989241;28;20046;-72
2022/06/21 12:58:38;;;;;;;5.20;1.27;;;22.50;74.00;;;;;;4988766;28;20173;-72
2022/06/21 13:01:18;;;;;;;2.60;0.82;;;22.50;76.10;;;;;;4982556;28;20076;-72
2022/06/21 13:03:44;;;;;;;3.13;1.02;;;22.60;75.10;;;;;;4985593;28;20110;-72
2022/06/21 13:06:33;;;;;;;2.33;0.70;;;22.80;72.30;;;;;;4974260;28;20093;-72
2022/06/21 13:09:22;;;;;;;3.80;1.08;;;22.80;70.60;;;;;;4988198;28;20104;-71
2022/06/21 13:11:57;;;;;;;4.25;1.15;;;22.80;66.20;;;;;;4974110;28;20518;-72
2022/06/21 13:14:39;;;;;;;4.53;1.08;;;23.00;69.20;;;;;;4974032;28;20536;-73
2022/06/21 13:17:13;;;;;;;3.40;0.90;;;23.20;63.60;;;;;;4999034;28;20042;-72
2022/06/21 13:19:50;;;;;;;2.85;1.02;;;23.30;65.10;;;;;;4977974;28;20413;-72
2022/06/21 13:22:50;;;;;;;1.88;0.60;;;23.30;66.90;;;;;;4988390;28;20551;-72
2022/06/21 13:25:30;;;;;;;3.88;0.98;;;23.50;69.10;;;;;;4976365;28;20046;-72
2022/06/21 13:28:47;;;;;;;2.97;0.88;;;23.60;69.30;;;;;;4975697;28;20549;-72
2022/06/21 13:31:28;;;;;;;4.13;0.70;;;23.80;67.40;;;;;;4959426;28;20037;-72
2022/06/21 13:34:06;;;;;;;3.65;0.80;;;24.00;70.10;;;;;;4973953;28;20046;-72
2022/06/21 13:36:39;;;;;;;4.28;1.30;;;24.20;69.00;;;;;;4990224;28;20103;-72
2022/06/21 13:39:41;;;;;;;3.55;0.70;;;24.20;61.60;;;;;;4985982;28;20101;-72
2022/06/21 13:42:37;;;;;;;4.38;1.13;;;24.10;62.80;;;;;;4986965;28;20050;-72
2022/06/21 13:45:12;;;;;;;4.55;1.58;;;24.20;60.00;;;;;;4976502;28;20107;-72
2022/06/21 13:47:54;;;;;;;3.58;0.90;;;24.20;65.50;;;;;;4986917;28;20228;-72
2022/06/21 13:50:51;;;;;;;2.28;0.80;;;24.30;69.80;;;;;;4979351;28;20077;-72
2022/06/21 13:53:41;;;;;;;2.58;1.00;;;24.50;71.50;;;;;;4971521;28;20512;-72
2022/06/21 13:56:41;;;;;;;6.30;1.50;;;24.60;69.80;;;;;;4990851;28;20042;-72
2022/06/21 13:59:16;;;;;;;3.78;0.90;;;24.70;69.30;;;;;;5012267;28;20058;-72
2022/06/21 14:02:02;;;;;;;3.20;0.82;;;24.80;72.70;;;;;;4988933;28;20413;-72
2022/06/21 14:04:46;;;;;;;2.92;1.10;;;25.00;64.10;;;;;;4985070;28;20042;-73
2022/06/21 14:07:38;;;;;;;3.00;0.90;;;24.90;59.10;;;;;;4977710;28;20513;-71
2022/06/21 14:10:37;;;;;;;2.75;0.70;;;24.70;60.00;;;;;;4995007;28;20038;-72